Time;durP1;ratioP1;P1;durP2;ratioP2;P2;SDS_P1;SDS_P2;PMS_P1;PMS_P2;Temp;Humidity;BMP_temperature;BMP_pressure;BME280_temperature;BME280_humidity;BME280_pressure;Samples;Min_cycle;Max_cycle;Signal;HPM_P1;HPM_P2
2021/09/30 00:02:07;;;;;;;1.47;1.33;;;;;;;10.06;79.31;97732.00;5085250;28;20236;-57
2021/09/30 00:04:32;;;;;;;3.70;1.77;;;;;;;9.99;79.34;97732.00;5077099;28;20269;-56
2021/09/30 00:06:58;;;;;;;1.17;1.17;;;;;;;9.95;80.13;97736.03;5090518;28;20249;-58
2021/09/30 00:09:23;;;;;;;1.50;1.40;;;;;;;9.84;80.56;97738.41;5077089;28;20181;-53
2021/09/30 00:11:53;;;;;;;1.23;1.23;;;;;;;9.94;80.20;97744.06;5089536;28;20306;-56
2021/09/30 00:14:42;;;;;;;1.40;1.30;;;;;;;9.77;80.61;97743.63;5077750;28;20191;-55
2021/09/30 00:17:27;;;;;;;1.60;1.50;;;;;;;9.85;80.78;97742.66;5080616;28;20276;-52
2021/09/30 00:41:17;;;;;;;1.90;1.70;;;;;;;9.68;83.36;97764.97;5079454;28;20176;-56
2021/09/30 00:46:46;;;;;;;2.23;1.60;;;;;;;9.59;84.33;97762.50;5078801;28;20195;-56
2021/09/30 00:49:30;;;;;;;1.70;1.60;;;;;;;9.54;84.55;97764.09;5080017;28;20200;-57
2021/09/30 01:27:31;;;;;;;1.70;1.60;;;;;;;9.23;85.81;97784.69;5078936;28;20333;-58
2021/09/30 02:24:27;;;;;;;1.50;1.50;;;;;;;8.72;86.63;97791.00;4996378;28;20187;-53
2021/09/30 02:59:07;;;;;;;2.80;1.80;;;;;;;8.68;86.48;97805.44;5077921;28;20703;-56
2021/09/30 03:01:35;;;;;;;3.10;1.70;;;;;;;8.65;86.41;97808.41;5091319;28;20600;-54
2021/09/30 03:04:01;;;;;;;2.10;1.90;;;;;;;8.60;87.06;97805.56;5080968;28;20189;-52
2021/09/30 03:06:28;;;;;;;2.10;2.00;;;;;;;8.64;86.71;97809.41;5090958;28;20185;-54
2021/09/30 03:08:57;;;;;;;1.90;1.80;;;;;;;8.44;87.54;97813.66;5082422;28;20177;-52
2021/09/30 03:11:24;;;;;;;3.80;1.83;;;;;;;8.38;88.44;97790.09;5089045;28;20186;-56
2021/09/30 03:13:52;;;;;;;2.43;2.23;;;;;;;8.41;87.78;97803.63;5077539;28;20193;-57
2021/09/30 03:18:57;;;;;;;2.17;1.90;;;;;;;8.23;89.33;97803.19;5090814;28;20173;-54
2021/09/30 03:24:11;;;;;;;2.10;1.90;;;;;;;8.19;89.07;97807.19;5083982;28;20243;-58
2021/09/30 03:26:37;;;;;;;2.00;1.90;;;;;;;8.14;89.43;97806.91;5076229;28;20199;-57
2021/09/30 03:29:03;;;;;;;2.00;1.90;;;;;;;8.19;88.94;97809.81;5086280;28;20178;-57
2021/09/30 03:31:31;;;;;;;2.77;2.07;;;;;;;8.15;88.70;97808.53;5082435;28;20555;-56
2021/09/30 03:33:56;;;;;;;2.17;2.00;;;;;;;8.07;89.02;97819.13;5087737;28;20196;-59
2021/09/30 03:36:22;;;;;;;2.50;1.97;;;;;;;8.03;89.64;97820.44;5089075;28;20250;-56
2021/09/30 03:38:48;;;;;;;2.53;1.90;;;;;;;7.80;90.59;97818.78;5078162;28;20550;-57
2021/09/30 03:41:13;;;;;;;1.77;1.67;;;;;;;7.87;90.06;97822.31;5085711;28;20193;-55
2021/09/30 03:43:39;;;;;;;2.00;1.90;;;;;;;7.91;89.68;97814.94;5081560;28;20192;-55
2021/09/30 03:46:04;;;;;;;2.73;1.83;;;;;;;7.83;90.29;97809.81;5069733;28;20172;-56
2021/09/30 03:48:30;;;;;;;2.17;1.97;;;;;;;7.95;90.12;97813.56;5076291;28;20190;-56
2021/09/30 04:01:05;;;;;;;2.70;1.80;;;;;;;7.96;90.15;97825.63;5087449;28;20181;-56
2021/09/30 04:03:30;;;;;;;2.97;1.73;;;;;;;7.82;90.26;97827.25;5079963;28;20185;-56
2021/09/30 04:05:56;;;;;;;3.90;1.90;;;;;;;7.90;90.15;97834.19;5080148;28;20543;-57
2021/09/30 04:08:21;;;;;;;1.80;1.70;;;;;;;7.82;90.48;97831.66;5088281;28;20200;-57
2021/09/30 04:10:46;;;;;;;3.07;1.90;;;;;;;7.85;90.51;97826.09;5087442;28;20238;-57
2021/09/30 04:13:12;;;;;;;2.27;1.50;;;;;;;7.73;90.74;97833.59;5079030;28;20692;-57
2021/09/30 04:15:37;;;;;;;2.53;2.00;;;;;;;7.68;91.01;97833.34;5083124;28;20266;-56
2021/09/30 04:18:03;;;;;;;1.93;1.70;;;;;;;7.80;90.32;97847.50;5078223;28;20173;-58
2021/09/30 04:20:28;;;;;;;1.70;1.60;;;;;;;7.70;90.84;97854.00;5087711;28;20176;-57
2021/09/30 04:22:54;;;;;;;1.50;1.40;;;;;;;7.61;91.35;97852.50;5074027;28;20181;-55
2021/09/30 04:25:19;;;;;;;1.67;1.57;;;;;;;7.48;92.10;97853.13;5078783;28;20717;-57
2021/09/30 04:27:44;;;;;;;2.00;1.70;;;;;;;7.48;91.99;97850.50;5083105;28;20194;-56
2021/09/30 04:30:10;;;;;;;2.13;1.90;;;;;;;7.46;91.99;97852.50;5085978;28;20185;-55
2021/09/30 04:32:36;;;;;;;2.57;1.60;;;;;;;7.51;91.69;97858.81;5075260;28;20233;-57
2021/09/30 04:35:02;;;;;;;1.70;1.60;;;;;;;7.75;90.33;97851.66;5093210;28;20674;-54
2021/09/30 04:37:28;;;;;;;2.00;1.30;;;;;;;7.58;91.21;97853.66;5083614;28;20189;-57
2021/09/30 04:39:53;;;;;;;1.63;1.53;;;;;;;7.33;92.42;97853.13;5077785;28;20188;-57
2021/09/30 04:42:18;;;;;;;2.07;1.33;;;;;;;7.35;92.23;97845.94;5091234;28;20272;-56
2021/09/30 04:44:44;;;;;;;1.93;1.40;;;;;;;7.60;91.35;97845.66;5079521;28;20177;-56
2021/09/30 04:47:09;;;;;;;2.80;1.70;;;;;;;7.35;92.68;97845.94;5092643;28;20601;-54
2021/09/30 04:49:35;;;;;;;1.70;1.60;;;;;;;7.44;92.27;97839.63;5079570;28;20182;-56
2021/09/30 04:52:00;;;;;;;3.00;1.40;;;;;;;7.37;92.60;97858.78;5086051;28;20665;-57
2021/09/30 04:54:26;;;;;;;1.73;1.50;;;;;;;7.51;91.53;97840.53;5081695;28;20303;-56
2021/09/30 04:56:51;;;;;;;4.07;1.67;;;;;;;7.42;92.02;97849.44;5092520;28;20264;-57
2021/09/30 04:59:17;;;;;;;3.47;2.03;;;;;;;7.30;92.90;97850.88;5084287;28;20204;-57
2021/09/30 05:01:42;;;;;;;3.47;1.63;;;;;;;7.27;92.90;97848.63;5082874;28;20275;-56
2021/09/30 05:04:07;;;;;;;1.67;1.57;;;;;;;7.46;91.66;97848.09;5092511;28;20191;-57
2021/09/30 05:06:33;;;;;;;1.70;1.60;;;;;;;7.36;92.48;97847.53;5081469;28;20185;-56
2021/09/30 05:08:59;;;;;;;3.00;1.90;;;;;;;7.31;92.90;97852.50;5079919;28;20189;-56
2021/09/30 05:11:31;;;;;;;1.60;1.50;;;;;;;7.33;92.85;97853.13;5076905;28;20189;-58
2021/09/30 05:13:58;;;;;;;3.90;1.80;;;;;;;7.35;92.58;97858.19;5091554;28;20193;-55
2021/09/30 05:16:24;;;;;;;1.50;1.50;;;;;;;7.42;92.10;97852.03;5084884;28;20177;-56
2021/09/30 05:18:52;;;;;;;1.37;1.33;;;;;;;7.34;92.90;97854.75;5083576;28;20189;-57
2021/09/30 05:21:17;;;;;;;1.50;1.40;;;;;;;7.57;91.54;97856.47;5076803;28;20185;-56
2021/09/30 05:23:44;;;;;;;1.57;1.50;;;;;;;7.62;91.51;97860.16;5086847;28;20647;-57
2021/09/30 05:26:09;;;;;;;1.97;1.83;;;;;;;7.47;91.87;97854.09;5077041;28;20182;-56
2021/09/30 05:28:35;;;;;;;2.70;1.80;;;;;;;7.42;91.95;97866.88;5090921;28;20524;-56
2021/09/30 05:31:00;;;;;;;1.80;1.70;;;;;;;7.55;91.28;97868.88;5080374;28;20234;-56
2021/09/30 05:33:26;;;;;;;1.83;1.60;;;;;;;7.58;91.48;97863.31;5087906;28;20262;-58
2021/09/30 05:35:53;;;;;;;2.60;2.00;;;;;;;7.66;91.41;97874.44;5083104;28;20185;-59
2021/09/30 05:38:19;;;;;;;1.87;1.77;;;;;;;7.65;91.37;97875.44;5089513;28;20271;-57
2021/09/30 05:40:48;;;;;;;1.93;1.50;;;;;;;7.77;90.73;97876.59;5078431;28;20280;-56
2021/09/30 05:43:20;;;;;;;4.23;2.13;;;;;;;7.88;90.29;97873.50;5093737;28;20220;-57
2021/09/30 05:45:45;;;;;;;2.53;1.60;;;;;;;8.14;89.92;97878.22;5091065;28;20169;-57
2021/09/30 05:48:11;;;;;;;3.00;2.20;;;;;;;8.24;89.61;97883.97;5089358;28;20336;-61
2021/09/30 05:50:36;;;;;;;4.90;2.40;;;;;;;8.25;89.12;97884.75;5080468;28;20211;-61
2021/09/30 05:53:03;;;;;;;2.13;1.90;;;;;;;8.71;87.77;97885.25;5080851;28;20201;-60
2021/09/30 05:55:29;;;;;;;2.40;2.20;;;;;;;9.00;84.72;97884.31;5090831;28;20181;-60
2021/09/30 05:57:54;;;;;;;2.23;2.03;;;;;;;9.00;84.35;97882.50;5090216;28;20177;-60
2021/09/30 06:00:28;;;;;;;2.10;1.90;;;;;;;9.06;84.86;97886.16;5081444;28;20184;-59
2021/09/30 06:11:41;;;;;;;1.70;1.60;;;;;;;9.49;82.39;97884.25;5091088;28;20540;-60
2021/09/30 06:13:38;;;;;;;2.60;1.80;;;;;;;9.59;81.44;97880.28;5067195;28;20223;-61
2021/09/30 06:16:08;;;;;;;1.83;1.50;;;;;;;9.68;80.71;97878.31;5085574;28;20215;-60
2021/09/30 06:18:34;;;;;;;2.93;1.90;;;;;;;9.75;80.77;97886.22;5079960;28;20181;-60
2021/09/30 06:20:59;;;;;;;2.20;1.50;;;;;;;9.78;80.13;97888.44;5087444;28;20182;-60
2021/09/30 06:23:25;;;;;;;1.50;1.47;;;;;;;9.96;78.97;97888.72;5082560;28;20659;-60
2021/09/30 06:25:50;;;;;;;1.47;1.37;;;;;;;10.12;78.43;97890.19;5081009;28;20311;-60
2021/09/30 06:28:15;;;;;;;3.20;1.40;;;;;;;10.10;77.63;97903.47;5087695;28;20196;-60
2021/09/30 06:30:41;;;;;;;1.57;1.53;;;;;;;10.06;78.35;97904.06;5091572;28;20204;-60
2021/09/30 06:33:06;;;;;;;1.57;1.40;;;;;;;10.20;77.38;97906.56;5079307;28;20220;-60
2021/09/30 06:35:32;;;;;;;1.20;1.20;;;;;;;10.38;76.91;97909.44;5084225;28;20184;-60
2021/09/30 06:37:57;;;;;;;1.30;1.10;;;;;;;10.60;75.96;97904.06;5081224;28;20539;-60
2021/09/30 06:40:23;;;;;;;1.30;1.13;;;;;;;10.65;75.77;97909.50;5073378;28;20177;-60
2021/09/30 06:42:48;;;;;;;1.37;1.20;;;;;;;10.82;74.72;97914.19;5090324;28;20200;-59
2021/09/30 06:45:14;;;;;;;1.63;1.30;;;;;;;10.92;74.17;97903.31;5074129;28;20173;-59
2021/09/30 06:47:39;;;;;;;4.97;1.50;;;;;;;11.04;73.25;97904.31;5083451;28;20212;-59
2021/09/30 06:50:07;;;;;;;1.80;1.10;;;;;;;11.15;73.04;97902.88;5079810;28;20187;-59
2021/09/30 06:52:33;;;;;;;1.30;1.20;;;;;;;11.01;73.80;97902.09;5090486;28;20208;-60
2021/09/30 06:54:58;;;;;;;1.47;1.37;;;;;;;11.04;73.43;97906.13;5076285;28;20231;-60
2021/09/30 06:57:27;;;;;;;2.10;1.40;;;;;;;11.21;73.25;97912.56;5086101;28;20284;-60
2021/09/30 06:59:54;;;;;;;1.63;1.53;;;;;;;11.39;72.37;97904.91;5084725;28;20180;-59
2021/09/30 07:02:22;;;;;;;3.97;1.10;;;;;;;11.42;72.55;97911.56;5086032;28;20208;-59
2021/09/30 07:04:48;;;;;;;1.60;1.03;;;;;;;11.72;71.21;97909.28;5090545;28;20196;-59
2021/09/30 07:07:14;;;;;;;1.37;1.20;;;;;;;11.67;70.46;97913.34;5088888;28;20176;-59
2021/09/30 07:09:39;;;;;;;0.80;0.80;;;;;;;11.83;70.63;97917.38;5081100;28;20237;-59
2021/09/30 07:12:05;;;;;;;1.03;1.03;;;;;;;11.83;70.64;97917.38;5089764;28;20185;-59
2021/09/30 07:14:30;;;;;;;0.90;0.90;;;;;;;12.02;69.92;97921.78;5080455;28;20232;-60
2021/09/30 07:16:56;;;;;;;4.13;0.90;;;;;;;12.09;69.67;97919.91;5083050;28;20550;-59
2021/09/30 07:19:22;;;;;;;1.43;1.10;;;;;;;12.23;69.52;97931.19;5080804;28;20223;-60
2021/09/30 07:21:48;;;;;;;2.47;1.30;;;;;;;12.19;69.22;97929.19;5080728;28;20196;-60
2021/09/30 07:24:13;;;;;;;1.17;1.03;;;;;;;12.35;69.21;97929.53;5081067;28;20217;-61
2021/09/30 07:26:40;;;;;;;1.30;1.13;;;;;;;12.33;69.53;97933.34;5078163;28;20680;-59
2021/09/30 07:29:06;;;;;;;3.40;1.00;;;;;;;12.41;68.38;97923.44;5077024;28;20256;-59
2021/09/30 07:31:31;;;;;;;2.53;1.00;;;;;;;12.33;69.72;97933.34;5074433;28;20322;-60
2021/09/30 07:33:56;;;;;;;1.43;1.03;;;;;;;12.26;69.59;97932.59;5087172;28;20287;-60
2021/09/30 07:36:22;;;;;;;2.63;1.23;;;;;;;12.33;70.08;97931.53;5091034;28;20238;-60
2021/09/30 07:38:48;;;;;;;0.93;0.93;;;;;;;12.54;69.63;97933.03;5075960;28;20177;-60
2021/09/30 07:41:13;;;;;;;2.10;1.13;;;;;;;12.68;70.06;97928.53;5086092;28;20184;-59
2021/09/30 07:43:39;;;;;;;1.40;1.07;;;;;;;12.77;69.51;97930.69;5083853;28;20227;-61
2021/09/30 07:46:04;;;;;;;2.30;1.10;;;;;;;13.13;68.30;97924.81;5080839;28;20185;-59
2021/09/30 07:48:30;;;;;;;1.07;1.07;;;;;;;13.30;67.27;97936.44;5081945;28;20192;-59
2021/09/30 07:50:55;;;;;;;1.13;1.07;;;;;;;13.37;66.67;97939.00;5081170;28;20268;-58
2021/09/30 07:53:21;;;;;;;3.17;1.20;;;;;;;13.46;67.00;97935.06;5089283;28;20667;-61
2021/09/30 07:55:46;;;;;;;2.07;1.10;;;;;;;13.68;65.33;97944.19;5073828;28;20192;-60
2021/09/30 07:58:12;;;;;;;3.53;1.20;;;;;;;13.61;65.14;97940.00;5083170;28;20274;-61
2021/09/30 08:08:23;;;;;;;1.13;1.03;;;;;;;13.69;65.13;97940.53;5356316;22;20500;-67
2021/09/30 08:10:49;;;;;;;1.43;1.07;;;;;;;13.86;64.17;97939.97;5070167;28;20201;-69
2021/09/30 08:13:14;;;;;;;0.90;0.90;;;;;;;13.82;64.22;97933.53;5072368;28;20189;-69
2021/09/30 08:15:40;;;;;;;3.40;1.00;;;;;;;14.03;60.96;97930.44;5072379;28;20261;-67
2021/09/30 08:18:05;;;;;;;2.33;0.97;;;;;;;13.86;61.00;97940.78;5072502;28;20284;-67
2021/09/30 08:20:31;;;;;;;1.33;0.83;;;;;;;13.96;59.80;97930.53;5072558;28;20627;-67
2021/09/30 08:22:57;;;;;;;0.77;0.77;;;;;;;14.27;58.72;97934.00;5072096;28;20728;-67
2021/09/30 08:25:23;;;;;;;0.70;0.70;;;;;;;14.41;58.70;97930.22;5054006;28;20264;-68
2021/09/30 08:27:48;;;;;;;0.77;0.77;;;;;;;14.66;58.55;97930.88;5072679;28;20174;-66
2021/09/30 08:30:14;;;;;;;2.37;0.87;;;;;;;14.23;58.39;97927.56;5072742;28;20189;-67
2021/09/30 08:32:39;;;;;;;2.97;0.70;;;;;;;14.28;59.51;97930.34;5072549;28;20675;-67
2021/09/30 08:35:06;;;;;;;4.07;0.90;;;;;;;14.18;59.18;97933.50;5072328;28;20207;-68
2021/09/30 08:37:32;;;;;;;2.23;1.00;;;;;;;14.24;58.17;97931.81;5071928;28;20276;-68
2021/09/30 08:39:58;;;;;;;0.77;0.77;;;;;;;14.32;57.63;97926.25;5071700;28;20706;-68
2021/09/30 08:42:24;;;;;;;1.20;0.83;;;;;;;14.38;55.93;97934.09;5071604;28;20177;-68
2021/09/30 08:44:52;;;;;;;3.40;0.70;;;;;;;14.22;56.40;97934.69;5054214;28;20184;-68
2021/09/30 08:47:19;;;;;;;3.67;0.63;;;;;;;14.48;55.87;97934.41;5071857;28;20223;-67
2021/09/30 08:49:45;;;;;;;3.13;1.20;;;;;;;14.88;54.59;97932.00;5072049;28;20173;-68
2021/09/30 08:52:10;;;;;;;1.10;0.60;;;;;;;14.66;53.97;97920.34;5037233;28;20579;-68
2021/09/30 08:54:36;;;;;;;0.97;0.77;;;;;;;14.59;54.90;97913.56;5071184;28;20267;-67
2021/09/30 08:57:03;;;;;;;1.13;0.50;;;;;;;14.78;54.79;97915.91;5072013;28;20198;-67
2021/09/30 08:59:29;;;;;;;1.37;0.70;;;;;;;14.91;53.66;97913.06;5072042;28;20178;-67
2021/09/30 09:02:08;;;;;;;1.20;0.80;;;;;;;14.93;50.43;97915.50;5053591;28;20657;-67
2021/09/30 09:04:34;;;;;;;1.03;0.90;;;;;;;14.49;52.22;97917.50;5071650;28;20224;-67
2021/09/30 09:07:08;;;;;;;1.10;0.60;;;;;;;14.72;52.29;97916.00;5071977;28;20585;-66
2021/09/30 09:09:34;;;;;;;2.03;1.00;;;;;;;14.49;52.33;97914.88;5071195;28;20302;-66
2021/09/30 09:12:08;;;;;;;1.80;0.70;;;;;;;14.80;51.76;97916.50;5071088;28;20186;-66
2021/09/30 09:14:37;;;;;;;1.03;0.70;;;;;;;15.00;51.07;97921.47;5071778;28;20209;-66
2021/09/30 09:17:06;;;;;;;2.50;0.57;;;;;;;15.42;50.18;97909.00;5071904;28;20545;-68
2021/09/30 09:19:39;;;;;;;0.63;0.60;;;;;;;15.52;49.20;97916.38;5073817;28;20186;-68
2021/09/30 09:22:10;;;;;;;2.07;0.70;;;;;;;15.79;48.85;97910.41;5062465;28;20174;-67
2021/09/30 09:24:53;;;;;;;3.60;0.80;;;;;;;16.00;48.34;97916.91;5075508;28;20618;-68
2021/09/30 09:27:19;;;;;;;0.50;0.50;;;;;;;15.95;48.10;97905.44;5057634;28;20609;-68
2021/09/30 09:29:45;;;;;;;2.93;0.63;;;;;;;15.95;47.37;97908.06;5075386;28;20659;-69
2021/09/30 09:32:10;;;;;;;2.63;0.70;;;;;;;15.68;47.96;97907.75;5075475;28;20272;-68
2021/09/30 09:34:37;;;;;;;0.77;0.70;;;;;;;15.78;47.83;97907.97;5075069;28;20263;-68
2021/09/30 09:37:31;;;;;;;2.13;0.50;;;;;;;15.68;47.16;97911.22;5075520;28;20220;-68
2021/09/30 09:39:58;;;;;;;0.93;0.40;;;;;;;15.85;47.09;97919.25;5048991;28;20189;-68
2021/09/30 09:42:30;;;;;;;2.43;0.60;;;;;;;15.48;47.14;97912.56;5075177;28;20193;-67
2021/09/30 09:44:56;;;;;;;5.47;0.70;;;;;;;15.50;47.80;97913.13;5075586;28;20637;-67
2021/09/30 09:47:27;;;;;;;0.63;0.60;;;;;;;15.51;48.58;97906.81;5074796;28;20221;-67
2021/09/30 09:50:14;;;;;;;1.13;0.60;;;;;;;15.47;47.81;97903.03;5058134;28;20173;-67
2021/09/30 09:52:51;;;;;;;0.50;0.50;;;;;;;15.58;46.62;97889.84;5074830;28;20204;-67
2021/09/30 09:55:21;;;;;;;2.00;0.70;;;;;;;15.54;47.40;97886.06;5074704;28;20208;-67
2021/09/30 09:58:08;;;;;;;1.03;0.70;;;;;;;15.53;46.67;97889.75;5074814;28;20193;-70
2021/09/30 10:00:37;;;;;;;0.60;0.60;;;;;;;15.42;47.19;97893.16;5075277;28;20513;-70
2021/09/30 10:03:19;;;;;;;0.40;0.40;;;;;;;15.45;46.57;97890.03;5075285;28;20272;-69
2021/09/30 10:05:46;;;;;;;2.43;0.70;;;;;;;15.43;47.11;97888.69;5054441;28;20181;-69
2021/09/30 10:08:14;;;;;;;2.63;0.87;;;;;;;15.54;46.33;97888.72;5056718;28;20587;-69
2021/09/30 10:10:40;;;;;;;0.40;0.40;;;;;;;15.55;45.93;97878.94;5056407;28;20304;-70
2021/09/30 10:13:06;;;;;;;0.30;0.30;;;;;;;15.55;46.53;97886.88;5056912;28;20292;-69
2021/09/30 10:15:33;;;;;;;0.50;0.50;;;;;;;15.43;45.58;97883.41;5074399;28;20181;-69
2021/09/30 10:18:02;;;;;;;0.50;0.50;;;;;;;15.35;46.21;97876.59;5074605;28;20220;-69
2021/09/30 10:20:28;;;;;;;1.07;0.67;;;;;;;15.67;44.90;97866.50;5074692;28;20209;-69
2021/09/30 10:22:55;;;;;;;1.60;0.80;;;;;;;15.57;43.70;97866.28;5074627;28;20224;-70
2021/09/30 10:25:22;;;;;;;0.70;0.50;;;;;;;15.22;44.47;97858.34;5074132;28;20177;-70
2021/09/30 10:27:56;;;;;;;1.30;0.50;;;;;;;15.22;44.22;97861.78;5074452;28;20177;-70
2021/09/30 10:30:32;;;;;;;2.33;0.60;;;;;;;15.13;44.01;97863.16;5073222;28;20189;-70
2021/09/30 10:32:58;;;;;;;0.53;0.50;;;;;;;15.55;42.94;97855.16;5074304;28;20200;-70
2021/09/30 10:35:38;;;;;;;1.00;0.70;;;;;;;15.63;43.91;97852.16;5073654;28;20181;-70
2021/09/30 10:38:24;;;;;;;0.43;0.40;;;;;;;15.69;44.13;97851.22;5074312;28;20196;-70
2021/09/30 10:41:01;;;;;;;0.93;0.50;;;;;;;15.78;44.54;97855.91;5067154;28;20295;-70
2021/09/30 10:43:32;;;;;;;0.40;0.40;;;;;;;15.82;44.60;97847.53;5073936;28;20196;-70
2021/09/30 10:45:59;;;;;;;0.70;0.50;;;;;;;15.79;43.96;97851.44;5056393;28;20174;-71
2021/09/30 10:48:26;;;;;;;1.00;0.83;;;;;;;15.73;43.02;97850.53;5073770;28;20274;-70
2021/09/30 10:50:55;;;;;;;0.87;0.83;;;;;;;15.47;43.20;97853.63;5071791;28;20185;-70
2021/09/30 10:53:46;;;;;;;1.97;0.80;;;;;;;15.48;43.27;97847.31;5069758;28;20266;-70
2021/09/30 10:56:24;;;;;;;0.50;0.50;;;;;;;15.58;43.05;97844.13;5061066;28;20653;-70
2021/09/30 10:58:49;;;;;;;2.17;1.33;;;;;;;15.75;42.72;97845.81;5072538;28;20263;-70
2021/09/30 11:01:15;;;;;;;1.67;0.60;;;;;;;15.89;42.88;97841.06;5055214;28;20201;-70
2021/09/30 11:04:00;;;;;;;0.73;0.50;;;;;;;15.71;42.09;97839.41;5073213;28;20181;-70
2021/09/30 11:06:26;;;;;;;0.73;0.50;;;;;;;15.82;43.58;97836.97;5073024;28;20193;-71
2021/09/30 11:09:11;;;;;;;1.03;0.50;;;;;;;15.87;42.86;97832.56;5073565;28;20253;-72
2021/09/30 11:11:37;;;;;;;0.50;0.50;;;;;;;16.11;43.09;97835.94;5073062;28;20193;-72
2021/09/30 11:14:03;;;;;;;1.27;0.60;;;;;;;16.25;41.74;97831.16;5073575;28;20197;-71
2021/09/30 11:16:37;;;;;;;0.60;0.53;;;;;;;16.16;41.14;97830.75;5072838;28;20180;-71
2021/09/30 11:19:04;;;;;;;2.50;0.70;;;;;;;15.91;42.14;97836.34;5069671;28;20271;-72
2021/09/30 11:24:22;;;;;;;0.50;0.50;;;;;;;16.23;41.59;97828.75;5073122;28;20198;-72
2021/09/30 11:26:48;;;;;;;2.57;0.60;;;;;;;16.49;40.80;97832.69;5067545;28;20185;-71
2021/09/30 11:29:19;;;;;;;4.13;0.60;;;;;;;16.41;41.43;97833.84;5072725;28;20196;-71
2021/09/30 11:31:46;;;;;;;0.67;0.43;;;;;;;16.47;41.24;97829.44;5055098;28;20276;-71
2021/09/30 11:34:20;;;;;;;0.30;0.30;;;;;;;16.37;40.92;97830.09;5072064;28;20243;-71
2021/09/30 11:36:45;;;;;;;0.50;0.50;;;;;;;16.39;40.18;97820.03;5065418;28;20170;-72
2021/09/30 11:39:11;;;;;;;0.87;0.43;;;;;;;16.29;40.99;97825.16;5072907;28;20585;-71
2021/09/30 11:41:40;;;;;;;1.60;0.60;;;;;;;15.96;41.80;97823.22;5072589;28;20170;-70
2021/09/30 11:44:06;;;;;;;0.50;0.50;;;;;;;15.88;40.83;97818.31;5072800;28;20252;-71
2021/09/30 11:46:34;;;;;;;1.83;0.70;;;;;;;15.83;41.23;97823.47;5072055;28;20661;-71
2021/09/30 11:49:01;;;;;;;0.70;0.70;;;;;;;15.80;41.61;97811.56;5072290;28;20192;-70
2021/09/30 11:51:32;;;;;;;0.40;0.40;;;;;;;15.84;41.53;97809.22;5072299;28;20191;-70
2021/09/30 11:53:58;;;;;;;1.27;0.40;;;;;;;15.99;41.68;97803.44;5072384;28;20201;-71
2021/09/30 11:56:24;;;;;;;0.50;0.50;;;;;;;16.07;41.99;97805.72;5072158;28;20269;-70
2021/09/30 11:59:01;;;;;;;0.60;0.50;;;;;;;16.25;41.29;97792.28;5054023;28;20205;-72
2021/09/30 12:01:46;;;;;;;1.63;0.60;;;;;;;16.12;41.24;97789.94;5069761;28;20552;-72
2021/09/30 12:04:35;;;;;;;3.80;0.60;;;;;;;16.07;41.51;97790.63;5069423;28;20178;-71
2021/09/30 12:07:01;;;;;;;1.23;0.50;;;;;;;16.14;41.00;97785.22;5070000;28;20177;-71
2021/09/30 12:09:32;;;;;;;1.30;0.60;;;;;;;16.17;40.12;97785.53;5053394;28;20232;-71
2021/09/30 12:12:00;;;;;;;0.67;0.40;;;;;;;16.11;40.62;97775.09;5072340;28;20566;-72
2021/09/30 12:14:37;;;;;;;0.47;0.47;;;;;;;15.99;41.54;97775.16;5072261;28;20228;-71
2021/09/30 12:17:05;;;;;;;0.83;0.60;;;;;;;16.01;42.18;97780.19;5054558;28;20177;-71
2021/09/30 12:19:40;;;;;;;0.60;0.50;;;;;;;15.93;42.33;97768.19;5072192;28;20185;-71
2021/09/30 12:22:09;;;;;;;1.70;0.57;;;;;;;15.63;41.73;97775.50;5072146;28;20259;-71
2021/09/30 12:24:35;;;;;;;1.37;0.60;;;;;;;15.68;43.03;97772.97;5054569;28;20641;-70
2021/09/30 12:27:04;;;;;;;3.97;0.57;;;;;;;15.65;42.01;97763.69;5072831;28;20191;-71
2021/09/30 12:29:30;;;;;;;0.57;0.53;;;;;;;15.85;42.72;97762.44;5071625;28;20207;-71
2021/09/30 12:32:07;;;;;;;0.33;0.33;;;;;;;15.66;41.77;97761.84;5072127;28;20185;-70
2021/09/30 12:34:33;;;;;;;1.17;0.53;;;;;;;15.57;41.52;97768.50;5071942;28;20708;-70
2021/09/30 12:36:59;;;;;;;1.27;0.63;;;;;;;15.51;42.69;97762.28;5072263;28;20189;-70
2021/09/30 12:39:30;;;;;;;2.43;0.53;;;;;;;15.39;43.42;97759.66;5072275;28;20273;-70
2021/09/30 12:42:11;;;;;;;0.87;0.50;;;;;;;15.53;42.50;97754.97;5072246;28;20181;-71
2021/09/30 12:44:41;;;;;;;2.13;0.70;;;;;;;15.68;42.36;97757.91;5054039;28;20173;-70
2021/09/30 12:47:07;;;;;;;0.63;0.43;;;;;;;15.69;42.51;97745.50;5072305;28;20226;-71
2021/09/30 12:49:33;;;;;;;0.60;0.60;;;;;;;15.61;42.42;97749.31;5072210;28;20231;-71
2021/09/30 12:52:15;;;;;;;4.00;0.70;;;;;;;15.50;42.18;97741.38;5071923;28;20633;-71
2021/09/30 12:54:43;;;;;;;0.80;0.33;;;;;;;15.47;42.18;97740.03;5073988;28;20591;-71
2021/09/30 12:57:10;;;;;;;1.30;0.63;;;;;;;15.58;41.72;97735.78;5075701;28;20183;-70
2021/09/30 12:59:35;;;;;;;0.50;0.50;;;;;;;15.72;41.64;97727.31;5076151;28;20188;-71
2021/09/30 13:02:03;;;;;;;0.83;0.43;;;;;;;15.69;41.84;97727.81;5075933;28;20178;-71
2021/09/30 13:04:29;;;;;;;0.40;0.40;;;;;;;15.54;42.40;97719.59;5075331;28;20193;-71
2021/09/30 13:07:03;;;;;;;1.33;0.50;;;;;;;15.58;42.91;97709.34;5073643;28;20185;-72
2021/09/30 13:09:29;;;;;;;1.17;0.50;;;;;;;15.85;42.29;97713.03;5061533;28;20263;-71
2021/09/30 13:11:56;;;;;;;0.40;0.40;;;;;;;15.92;41.06;97705.75;5075085;28;20512;-71
2021/09/30 13:14:30;;;;;;;9.53;0.70;;;;;;;15.76;41.34;97702.03;5074990;28;20591;-71
2021/09/30 13:17:05;;;;;;;0.63;0.50;;;;;;;15.52;41.90;97707.63;5075592;28;20209;-71
2021/09/30 13:19:44;;;;;;;0.60;0.60;;;;;;;15.48;42.49;97703.84;5074985;28;20223;-70
2021/09/30 13:22:11;;;;;;;0.43;0.43;;;;;;;15.60;43.00;97705.44;5059676;28;20223;-71
2021/09/30 13:24:38;;;;;;;1.03;0.60;;;;;;;15.58;42.64;97699.56;5075348;28;20185;-70
2021/09/30 13:27:06;;;;;;;2.10;0.53;;;;;;;15.69;42.49;97698.72;5075453;28;20234;-70
2021/09/30 13:29:31;;;;;;;0.53;0.53;;;;;;;15.72;42.42;97692.16;5075561;28;20195;-71
2021/09/30 13:31:57;;;;;;;0.70;0.70;;;;;;;15.98;42.23;97688.94;5075258;28;20704;-71
2021/09/30 13:34:23;;;;;;;0.50;0.50;;;;;;;15.91;42.16;97688.28;5056896;28;20690;-70
2021/09/30 13:36:49;;;;;;;0.47;0.47;;;;;;;16.05;42.25;97694.84;5057496;28;20544;-71
2021/09/30 13:39:15;;;;;;;0.40;0.40;;;;;;;15.92;41.38;97681.16;5057372;28;20251;-71
2021/09/30 13:41:40;;;;;;;0.83;0.53;;;;;;;15.82;41.18;97678.34;5075443;28;20630;-71
2021/09/30 13:44:06;;;;;;;0.67;0.60;;;;;;;15.72;41.48;97676.28;5057348;28;20192;-71
2021/09/30 13:46:31;;;;;;;1.93;0.50;;;;;;;15.36;42.72;97675.63;5075031;28;20491;-71
2021/09/30 13:48:57;;;;;;;2.17;1.10;;;;;;;15.71;59.70;97672.88;5074834;28;20179;-69
2021/09/30 13:51:22;;;;;;;0.77;0.70;;;;;;;16.53;50.72;97673.16;5074940;28;20236;-70
2021/09/30 13:53:48;;;;;;;1.23;0.80;;;;;;;16.80;49.01;97670.66;5075063;28;20203;-69
2021/09/30 13:56:13;;;;;;;2.97;0.50;;;;;;;16.79;42.32;97673.53;5040469;28;20276;-73
2021/09/30 13:58:38;;;;;;;0.83;0.50;;;;;;;16.76;40.76;97671.38;5074487;28;20236;-74
2021/09/30 14:01:04;;;;;;;0.93;0.50;;;;;;;16.10;41.18;97662.44;5052979;28;20347;-73
2021/09/30 14:03:29;;;;;;;0.43;0.43;;;;;;;15.49;41.28;97669.22;5073543;28;20189;-73
2021/09/30 14:05:55;;;;;;;0.83;0.60;;;;;;;15.39;42.50;97675.13;5055573;28;20193;-73
2021/09/30 14:08:20;;;;;;;1.10;0.60;;;;;;;15.68;42.01;97672.53;5074343;28;20181;-73
2021/09/30 14:10:47;;;;;;;0.83;0.63;;;;;;;15.86;41.24;97672.31;5055946;28;20217;-73
2021/09/30 14:13:16;;;;;;;1.73;0.40;;;;;;;15.98;40.81;97659.84;5074512;28;20193;-73
2021/09/30 14:15:45;;;;;;;0.70;0.40;;;;;;;15.79;40.47;97663.75;5056800;28;20230;-73
2021/09/30 14:18:11;;;;;;;0.67;0.60;;;;;;;15.62;41.01;97665.53;5056540;28;20636;-73
2021/09/30 14:20:37;;;;;;;0.50;0.50;;;;;;;15.58;41.09;97665.22;5073938;28;20186;-73
2021/09/30 14:23:03;;;;;;;0.60;0.40;;;;;;;15.84;41.15;97655.09;5074645;28;20196;-73
2021/09/30 14:25:29;;;;;;;3.53;0.80;;;;;;;15.98;41.35;97654.56;5074493;28;20190;-73
2021/09/30 14:27:54;;;;;;;0.47;0.47;;;;;;;16.01;41.42;97648.78;5074365;28;20261;-73
2021/09/30 14:30:19;;;;;;;0.50;0.50;;;;;;;15.68;41.42;97646.09;5056267;28;20188;-73
2021/09/30 14:32:45;;;;;;;0.43;0.43;;;;;;;15.82;41.44;97643.97;5073461;28;20189;-73
2021/09/30 14:35:10;;;;;;;0.53;0.50;;;;;;;15.75;41.64;97646.75;5055976;28;20223;-73
2021/09/30 14:37:36;;;;;;;0.60;0.60;;;;;;;15.79;41.39;97648.69;5074055;28;20185;-73
2021/09/30 14:40:02;;;;;;;0.70;0.70;;;;;;;15.83;41.52;97635.00;5074200;28;20185;-73
2021/09/30 14:42:28;;;;;;;2.07;0.67;;;;;;;15.64;41.44;97640.50;5074627;28;20190;-73